createdAt,value
2023-05-22T00:01:15.335Z,99378.66
2023-05-22T00:03:42.486Z,99376.42
2023-05-22T00:06:10.479Z,99380.95
2023-05-22T00:08:38.020Z,99384.22
2023-05-22T00:11:05.360Z,99378.24
2023-05-22T00:13:32.514Z,99377.02
2023-05-22T00:15:59.660Z,99376.84
2023-05-22T00:18:27.421Z,99378.42
2023-05-22T00:20:54.574Z,99379.98
2023-05-22T00:23:22.186Z,99377.74
2023-05-22T00:25:51.021Z,99377.39
2023-05-22T00:28:18.065Z,99376.48
2023-05-22T00:30:46.041Z,99376.11
2023-05-22T00:33:13.256Z,99370.63
2023-05-22T00:35:40.336Z,99368.48
2023-05-22T00:38:08.410Z,99364.48
2023-05-22T00:40:35.514Z,99366.77
2023-05-22T00:43:08.831Z,99368.84
2023-05-22T00:45:36.830Z,99366.57
2023-05-22T00:48:04.381Z,99367.98
2023-05-22T00:50:31.619Z,99366.95
2023-05-22T00:52:58.670Z,99364.66
2023-05-22T00:55:25.810Z,99363.43
2023-05-22T00:57:52.994Z,99366.23
2023-05-22T01:00:20.827Z,99361.52
2023-05-22T01:02:48.318Z,99356.09
2023-05-22T01:05:18.352Z,99357.42
2023-05-22T01:07:46.159Z,99356.30
2023-05-22T01:10:13.201Z,99352.02
2023-05-22T01:12:49.165Z,99351.80
2023-05-22T01:15:33.411Z,99343.79
2023-05-22T01:18:26.494Z,99345.17
2023-05-22T01:20:58.378Z,99350.54
2023-05-22T01:23:36.707Z,99352.10
2023-05-22T01:26:29.190Z,99352.97
2023-05-22T01:29:13.051Z,99354.00
2023-05-22T01:31:40.707Z,99350.64
2023-05-22T01:34:10.675Z,99347.42
2023-05-22T01:36:39.687Z,99342.33
2023-05-22T01:39:06.943Z,99345.16
2023-05-22T01:41:34.289Z,99343.76
2023-05-22T01:44:02.062Z,99342.81
2023-05-22T01:46:29.633Z,99340.94
2023-05-22T01:48:57.584Z,99340.08
2023-05-22T01:51:29.602Z,99340.06
2023-05-22T01:54:22.905Z,99341.02
2023-05-22T01:57:22.256Z,99345.16
2023-05-22T01:59:50.992Z,99339.58
2023-05-22T02:02:19.267Z,99343.09
2023-05-22T02:04:57.732Z,99348.98
2023-05-22T02:07:27.499Z,99345.83
2023-05-22T02:09:56.065Z,99345.60
2023-05-22T02:12:23.741Z,99344.88
2023-05-22T02:14:50.884Z,99345.20
2023-05-22T02:17:18.438Z,99343.09
2023-05-22T02:19:45.565Z,99344.30
2023-05-22T02:22:14.018Z,99346.21
2023-05-22T02:24:42.345Z,99341.66
2023-05-22T02:27:09.933Z,99344.06
2023-05-22T02:29:36.926Z,99342.69
2023-05-22T02:32:04.374Z,99340.81
2023-05-22T02:34:35.115Z,99344.83
2023-05-22T02:37:05.392Z,99343.10
2023-05-22T02:39:32.616Z,99343.60
2023-05-22T02:41:59.596Z,99340.90
2023-05-22T02:44:26.822Z,99342.15
2023-05-22T02:46:54.294Z,99342.27
2023-05-22T02:49:21.609Z,99344.23
2023-05-22T02:51:48.699Z,99348.38
2023-05-22T02:54:16.349Z,99346.95
2023-05-22T02:56:43.669Z,99347.56
2023-05-22T02:59:11.454Z,99343.63
2023-05-22T03:01:39.966Z,99347.05
2023-05-22T03:04:07.410Z,99347.77
2023-05-22T03:06:35.486Z,99346.45
2023-05-22T03:09:04.505Z,99347.00
2023-05-22T03:11:32.277Z,99346.54
2023-05-22T03:13:59.475Z,99346.39
2023-05-22T03:16:27.057Z,99349.45
2023-05-22T03:19:14.314Z,99346.39
2023-05-22T03:21:41.604Z,99347.52
2023-05-22T03:24:08.727Z,99346.52
2023-05-22T03:26:35.985Z,99349.69
2023-05-22T03:29:04.194Z,99351.98
2023-05-22T03:31:32.735Z,99350.84
2023-05-22T03:34:06.245Z,99351.56
2023-05-22T03:36:34.400Z,99350.94
2023-05-22T03:39:03.107Z,99351.35
2023-05-22T03:41:31.033Z,99351.23
2023-05-22T03:43:58.406Z,99352.34
2023-05-22T03:46:25.884Z,99348.20
2023-05-22T03:48:52.978Z,99353.49
2023-05-22T03:51:20.481Z,99354.77
2023-05-22T03:53:47.717Z,99353.04
2023-05-22T03:56:15.074Z,99349.27
2023-05-22T03:58:42.022Z,99351.91
2023-05-22T04:01:10.258Z,99348.17
2023-05-22T04:03:38.047Z,99354.23
2023-05-22T04:06:05.999Z,99351.21
2023-05-22T04:08:33.169Z,99348.02
2023-05-22T04:11:00.712Z,99348.08
2023-05-22T04:13:27.744Z,99348.11
2023-05-22T04:15:57.037Z,99340.05
2023-05-22T04:18:24.145Z,99334.61
2023-05-22T04:20:52.207Z,99326.86
2023-05-22T04:23:19.436Z,99326.45
2023-05-22T04:25:48.392Z,99328.83
2023-05-22T04:28:17.728Z,99321.55
2023-05-22T04:30:46.677Z,99320.20
2023-05-22T04:33:13.816Z,99325.54
2023-05-22T04:35:41.085Z,99327.02
2023-05-22T04:38:08.604Z,99325.26
2023-05-22T04:40:38.370Z,99326.47
2023-05-22T04:43:05.651Z,99326.34
2023-05-22T04:45:33.125Z,99327.13
2023-05-22T04:48:02.868Z,99321.28
2023-05-22T04:50:36.223Z,99321.51
2023-05-22T04:53:06.243Z,99323.40
2023-05-22T04:55:34.271Z,99318.92
2023-05-22T04:58:01.841Z,99316.67
2023-05-22T05:00:29.629Z,99319.00
2023-05-22T05:02:57.738Z,99320.11
2023-05-22T05:05:25.508Z,99313.60
2023-05-22T05:07:53.955Z,99315.66
2023-05-22T05:10:20.959Z,99317.05
2023-05-22T05:12:48.122Z,99318.61
2023-05-22T05:15:15.377Z,99318.34
2023-05-22T05:17:43.476Z,99316.27
2023-05-22T05:20:14.499Z,99319.73
2023-05-22T05:22:44.230Z,99319.20
2023-05-22T05:25:13.377Z,99323.13
2023-05-22T05:27:40.677Z,99321.69
2023-05-22T05:30:08.794Z,99320.28
2023-05-22T05:32:50.359Z,99319.77
2023-05-22T05:35:25.117Z,99319.23
2023-05-22T05:38:03.118Z,99317.55
2023-05-22T05:40:31.548Z,99320.30
2023-05-22T05:42:59.085Z,99314.29
2023-05-22T05:45:26.621Z,99314.00
2023-05-22T05:47:53.842Z,99315.11
2023-05-22T05:50:21.222Z,99312.50
2023-05-22T05:52:48.479Z,99313.91
2023-05-22T05:55:17.977Z,99315.02
2023-05-22T05:57:45.052Z,99314.23
2023-05-22T06:00:18.103Z,99311.86
2023-05-22T06:02:48.886Z,99313.87
2023-05-22T06:05:29.473Z,99310.80
2023-05-22T06:08:06.211Z,99311.02
2023-05-22T06:10:33.306Z,99314.26
2023-05-22T06:13:11.234Z,99309.13
2023-05-22T06:15:38.527Z,99305.42
2023-05-22T06:18:06.848Z,99304.52
2023-05-22T06:20:34.385Z,99305.73
2023-05-22T06:23:01.473Z,99300.18
2023-05-22T06:25:30.297Z,99297.98
2023-05-22T06:27:57.842Z,99296.25
2023-05-22T06:30:39.033Z,99293.27
2023-05-22T06:33:09.260Z,99291.64
2023-05-22T06:35:36.582Z,99293.29
2023-05-22T06:38:05.058Z,99290.61
2023-05-22T06:40:32.833Z,99291.41
2023-05-22T06:43:08.386Z,99286.25
2023-05-22T06:45:48.971Z,99286.85
2023-05-22T06:48:45.176Z,99284.91
2023-05-22T06:51:24.607Z,99285.02
2023-05-22T06:53:55.120Z,99281.98
2023-05-22T06:56:25.009Z,99280.64
2023-05-22T06:59:12.559Z,99281.72
2023-05-22T07:02:02.461Z,99281.79
2023-05-22T07:05:08.024Z,99279.80
2023-05-22T07:07:44.715Z,99275.20
2023-05-22T07:10:12.412Z,99279.80
2023-05-22T07:12:39.496Z,99281.16
2023-05-22T07:15:10.591Z,99280.92
2023-05-22T07:17:37.961Z,99281.80
2023-05-22T07:20:05.523Z,99274.57
2023-05-22T07:22:34.155Z,99272.13
2023-05-22T07:25:01.357Z,99276.26
2023-05-22T07:27:31.681Z,99271.70
2023-05-22T07:29:59.234Z,99271.08
2023-05-22T07:32:26.542Z,99277.05
2023-05-22T07:34:53.974Z,99276.94
2023-05-22T07:37:22.439Z,99275.09
2023-05-22T07:39:49.488Z,99275.02
2023-05-22T07:42:16.622Z,99277.20
2023-05-22T07:45:09.061Z,99272.32
2023-05-22T07:47:36.131Z,99262.33
2023-05-22T07:50:04.636Z,99260.24
2023-05-22T07:52:33.070Z,99262.31
2023-05-22T07:55:02.664Z,99270.20
2023-05-22T07:57:33.103Z,99267.18
2023-05-22T08:00:13.714Z,99264.86
2023-05-22T08:02:42.049Z,99259.42
2023-05-22T08:05:10.262Z,99257.38
2023-05-22T08:07:37.654Z,99254.77
2023-05-22T08:10:08.609Z,99258.98
2023-05-22T08:12:36.061Z,99259.71
2023-05-22T08:15:04.129Z,99259.17
2023-05-22T08:17:31.468Z,99264.13
2023-05-22T08:19:59.072Z,99261.91
2023-05-22T08:22:26.559Z,99263.70
2023-05-22T08:24:53.601Z,99260.92
2023-05-22T08:27:20.592Z,99262.67
2023-05-22T08:29:47.697Z,99258.91
2023-05-22T08:32:14.754Z,99258.69
2023-05-22T08:34:44.325Z,99257.77
2023-05-22T08:37:14.465Z,99253.13
2023-05-22T08:39:41.534Z,99252.08
2023-05-22T08:42:08.898Z,99249.47
2023-05-22T08:44:36.009Z,99252.03
2023-05-22T08:47:05.368Z,99251.14
2023-05-22T08:49:32.747Z,99247.66
2023-05-22T08:52:03.813Z,99245.91
2023-05-22T08:54:31.005Z,99250.54
2023-05-22T08:56:58.029Z,99250.11
2023-05-22T08:59:25.102Z,99247.24
2023-05-22T09:01:52.612Z,99248.48
2023-05-22T09:04:23.716Z,99245.70
2023-05-22T09:06:52.072Z,99244.75
2023-05-22T09:09:19.390Z,99241.08
2023-05-22T09:11:46.543Z,99238.05
2023-05-22T09:14:13.687Z,99245.61
2023-05-22T09:16:47.700Z,99239.27
2023-05-22T09:19:15.423Z,99240.05
2023-05-22T09:21:43.275Z,99234.03
2023-05-22T09:24:11.107Z,99230.91
2023-05-22T09:26:41.378Z,99228.44
2023-05-22T09:29:08.785Z,99229.19
2023-05-22T09:31:43.001Z,99224.38
2023-05-22T09:34:10.885Z,99221.40
2023-05-22T09:36:38.029Z,99219.62
2023-05-22T09:39:05.073Z,99218.20
2023-05-22T09:41:39.953Z,99216.80
2023-05-22T09:44:07.569Z,99206.84
2023-05-22T09:46:41.678Z,99201.87
2023-05-22T09:49:09.052Z,99200.68
2023-05-22T09:51:36.471Z,99204.29
2023-05-22T09:54:04.006Z,99207.39
2023-05-22T09:56:39.295Z,99198.61
2023-05-22T09:59:09.171Z,99192.89
2023-05-22T10:01:37.106Z,99194.20
2023-05-22T10:04:04.846Z,99198.00
2023-05-22T10:06:34.232Z,99195.84
2023-05-22T10:09:05.719Z,99190.54
2023-05-22T10:11:33.425Z,99184.45
2023-05-22T10:14:01.947Z,99185.88
2023-05-22T10:16:29.002Z,99185.64
2023-05-22T10:18:56.058Z,99181.38
2023-05-22T10:21:23.249Z,99178.55
2023-05-22T10:23:50.497Z,99175.61
2023-05-22T10:26:17.651Z,99176.43
2023-05-22T10:28:57.282Z,99174.83
2023-05-22T10:31:28.109Z,99169.98
2023-05-22T10:34:27.868Z,99163.77
2023-05-22T10:37:22.365Z,99161.23
2023-05-22T10:39:58.857Z,99163.90
2023-05-22T10:42:29.855Z,99153.59
2023-05-22T10:44:57.123Z,99158.02
2023-05-22T10:47:24.169Z,99149.39
2023-05-22T10:49:52.559Z,99142.59
2023-05-22T10:52:22.089Z,99136.64
2023-05-22T10:54:53.707Z,99141.89
2023-05-22T10:57:20.932Z,99140.92
2023-05-22T10:59:47.991Z,99137.27
2023-05-22T11:02:22.564Z,99137.86
2023-05-22T11:04:50.035Z,99134.45
2023-05-22T11:07:17.410Z,99130.77
2023-05-22T11:09:53.806Z,99135.23
2023-05-22T11:12:25.132Z,99129.36
2023-05-22T11:15:13.300Z,99126.75
2023-05-22T11:17:52.490Z,99119.13
2023-05-22T11:20:30.214Z,99125.05
2023-05-22T11:22:59.067Z,99121.42
2023-05-22T11:25:30.231Z,99122.38
2023-05-22T11:27:57.630Z,99122.09
2023-05-22T11:30:28.752Z,99114.05
2023-05-22T11:32:57.211Z,99112.08
2023-05-22T11:35:24.992Z,99114.23
2023-05-22T11:37:53.529Z,99106.06
2023-05-22T11:40:26.021Z,99111.02
2023-05-22T11:42:54.472Z,99104.97
2023-05-22T11:45:23.046Z,99106.23
2023-05-22T11:47:51.742Z,99107.72
2023-05-22T11:50:43.687Z,99103.02
2023-05-22T11:53:10.309Z,99101.39
2023-05-22T11:55:38.209Z,99100.91
2023-05-22T11:58:05.711Z,99099.83
2023-05-22T12:00:33.742Z,99102.23
2023-05-22T12:03:01.505Z,99100.22
2023-05-22T12:05:32.080Z,99092.44
2023-05-22T12:07:59.576Z,99093.17
2023-05-22T12:10:27.151Z,99095.38
2023-05-22T12:12:54.709Z,99101.02
2023-05-22T12:15:22.441Z,99101.47
2023-05-22T12:17:49.963Z,99098.33
2023-05-22T12:20:17.517Z,99091.85
2023-05-22T12:22:46.443Z,99090.17
2023-05-22T12:25:20.865Z,99084.23
2023-05-22T12:27:49.514Z,99082.55
2023-05-22T12:30:17.770Z,99081.31
2023-05-22T12:32:49.780Z,99084.63
2023-05-22T12:35:17.897Z,99079.94
2023-05-22T12:37:50.096Z,99078.27
2023-05-22T12:40:17.699Z,99077.75
2023-05-22T12:42:45.252Z,99073.11
2023-05-22T12:45:13.564Z,99068.30
2023-05-22T12:47:41.684Z,99065.56
2023-05-22T12:50:09.552Z,99071.77
2023-05-22T12:52:37.088Z,99067.27
2023-05-22T12:55:05.451Z,99069.92
2023-05-22T12:57:32.962Z,99070.70
2023-05-22T13:00:00.975Z,99062.54
2023-05-22T13:02:28.617Z,99063.09
2023-05-22T13:04:56.243Z,99060.05
2023-05-22T13:07:23.847Z,99058.91
2023-05-22T13:09:51.822Z,99061.55
2023-05-22T13:12:19.552Z,99051.84
2023-05-22T13:14:47.360Z,99045.80
2023-05-22T13:17:14.932Z,99046.82
2023-05-22T13:19:42.821Z,99051.76
2023-05-22T13:22:10.536Z,99052.61
2023-05-22T13:24:38.193Z,99049.56
2023-05-22T13:27:06.190Z,99049.27
2023-05-22T13:29:33.850Z,99049.95
2023-05-22T13:32:01.754Z,99047.86
2023-05-22T13:34:29.611Z,99044.59
2023-05-22T13:36:57.323Z,99042.06
2023-05-22T13:39:25.038Z,99038.11
2023-05-22T13:41:53.289Z,99033.98
2023-05-22T13:44:21.544Z,99032.01
2023-05-22T13:46:49.211Z,99032.20
2023-05-22T13:49:16.901Z,99023.66
2023-05-22T13:51:44.470Z,99023.73
2023-05-22T13:54:12.120Z,99025.21
2023-05-22T13:56:39.753Z,99028.23
2023-05-22T13:59:09.351Z,99024.04
2023-05-22T14:01:37.098Z,99023.02
2023-05-22T14:04:05.930Z,99022.48
2023-05-22T14:06:34.658Z,99017.42
2023-05-22T14:09:02.710Z,99016.47
2023-05-22T14:11:30.460Z,99012.35
2023-05-22T14:17:29.095Z,99009.86
2023-05-22T14:19:56.679Z,99010.43
2023-05-22T14:22:24.310Z,99004.19
2023-05-22T14:24:51.892Z,99004.60
2023-05-22T14:27:19.429Z,99003.74
2023-05-22T14:29:47.411Z,99000.77
2023-05-22T14:32:14.961Z,99000.20
2023-05-22T14:34:45.217Z,99000.17
2023-05-22T14:37:22.154Z,98999.95
2023-05-22T14:39:55.799Z,98987.61
2023-05-22T14:42:24.649Z,98983.48
2023-05-22T14:44:52.427Z,98983.14
2023-05-22T14:47:20.193Z,98985.23
2023-05-22T14:49:47.910Z,98985.59
2023-05-22T14:52:15.547Z,98986.26
2023-05-22T14:54:43.582Z,98984.80
2023-05-22T14:57:11.072Z,98982.73
2023-05-22T14:59:38.589Z,98983.53
2023-05-22T15:02:06.344Z,98983.56
2023-05-22T15:04:34.154Z,98985.59
2023-05-22T15:07:02.303Z,98983.34
2023-05-22T15:09:31.196Z,98981.39
2023-05-22T15:11:58.667Z,98981.80
2023-05-22T15:14:26.312Z,98980.64
2023-05-22T15:16:53.877Z,98982.77
2023-05-22T15:19:21.488Z,98982.77
2023-05-22T15:21:49.139Z,98984.34
2023-05-22T15:24:17.127Z,98983.18
2023-05-22T15:26:44.739Z,98983.73
2023-05-22T15:29:12.499Z,98981.11
2023-05-22T15:31:40.033Z,98980.42
2023-05-22T15:34:07.534Z,98979.05
2023-05-22T15:36:36.534Z,98975.52
2023-05-22T15:39:04.135Z,98980.80
2023-05-22T15:41:31.849Z,98979.63
2023-05-22T15:43:59.375Z,98979.80
2023-05-22T15:46:27.161Z,98978.90
2023-05-22T15:48:54.827Z,98977.28
2023-05-22T15:51:22.544Z,98976.59
2023-05-22T15:53:50.973Z,98976.42
2023-05-22T16:05:18.386Z,98971.45
2023-05-22T16:07:46.167Z,98975.05
2023-05-22T16:10:13.712Z,98969.27
2023-05-22T16:12:42.130Z,98970.30
2023-05-22T16:15:10.294Z,98970.92
2023-05-22T16:17:38.520Z,98971.08
2023-05-22T16:20:07.521Z,98972.33
2023-05-22T16:22:47.420Z,98972.28
2023-05-22T16:25:17.000Z,98970.30
2023-05-22T16:27:44.698Z,98969.43
2023-05-22T16:30:14.918Z,98970.25
2023-05-22T16:32:43.215Z,98972.52
2023-05-22T16:35:11.319Z,98974.88
2023-05-22T16:37:38.839Z,98976.66
2023-05-22T16:40:09.351Z,98975.67
2023-05-22T16:42:41.021Z,98978.29
2023-05-22T16:45:09.730Z,98975.38
2023-05-22T16:47:37.326Z,98975.21
2023-05-22T16:50:06.083Z,98975.45
2023-05-22T16:52:33.658Z,98975.13
2023-05-22T16:55:01.380Z,98974.17
2023-05-22T16:57:29.096Z,98975.20
2023-05-22T16:59:57.899Z,98976.48
2023-05-22T17:02:25.715Z,98976.71
2023-05-22T17:04:53.291Z,98979.46
2023-05-22T17:07:21.284Z,98979.43
2023-05-22T17:09:48.808Z,98978.44
2023-05-22T17:12:16.325Z,98984.52
2023-05-22T17:14:44.133Z,98985.25
2023-05-22T17:17:11.712Z,98983.90
2023-05-22T17:19:39.555Z,98983.17
2023-05-22T17:22:07.166Z,98985.86
2023-05-22T17:24:34.815Z,98985.23
2023-05-22T17:27:03.762Z,98986.45
2023-05-22T17:29:31.269Z,98982.16
2023-05-22T17:31:58.872Z,98978.79
2023-05-22T17:34:26.519Z,98976.89
2023-05-22T17:36:54.043Z,98979.05
2023-05-22T17:39:22.190Z,98980.10
2023-05-22T17:45:22.505Z,98978.70
2023-05-22T17:47:50.289Z,98980.70
2023-05-22T17:50:18.116Z,98980.77
2023-05-22T17:52:45.770Z,98982.37
2023-05-22T17:55:13.943Z,98982.37
2023-05-22T17:57:41.912Z,98986.29
2023-05-22T18:00:10.700Z,98987.21
2023-05-22T18:02:41.159Z,98987.55
2023-05-22T18:05:09.411Z,98986.55
2023-05-22T18:07:36.923Z,98991.48
2023-05-22T18:10:05.494Z,98994.35
2023-05-22T18:12:33.206Z,99000.17
2023-05-22T18:15:01.383Z,98998.79
2023-05-22T18:17:28.974Z,99000.43
2023-05-22T18:19:56.701Z,99000.73
2023-05-22T18:22:25.677Z,99004.30
2023-05-22T18:24:53.161Z,99004.73
2023-05-22T18:27:20.915Z,99006.73
2023-05-22T18:29:48.526Z,99005.05
2023-05-22T18:32:16.059Z,99009.54
2023-05-22T18:34:44.304Z,99011.23
2023-05-22T18:37:11.969Z,99011.14
2023-05-22T18:39:39.559Z,99013.80
2023-05-22T18:42:07.042Z,99014.45
2023-05-22T18:44:34.647Z,99013.60
2023-05-22T18:47:02.366Z,99011.73
2023-05-22T18:49:30.169Z,99012.14
2023-05-22T18:51:58.247Z,99012.36
2023-05-22T18:54:26.755Z,99011.93
2023-05-22T18:56:54.352Z,99012.18
2023-05-22T18:59:21.839Z,99010.01
2023-05-22T19:01:49.315Z,99010.64
2023-05-22T19:04:16.808Z,99010.34
2023-05-22T19:06:44.521Z,99013.25
2023-05-22T19:09:14.941Z,99014.29
2023-05-22T19:11:42.503Z,99015.73
2023-05-22T19:14:10.002Z,99017.11
2023-05-22T19:16:37.742Z,99019.73
2023-05-22T19:19:09.292Z,99019.67
2023-05-22T19:21:40.449Z,99015.29
2023-05-22T19:24:08.083Z,99018.54
2023-05-22T19:26:35.664Z,99017.47
2023-05-22T19:29:03.301Z,99015.24
2023-05-22T19:31:31.017Z,99014.09
2023-05-22T19:33:58.559Z,99011.38
2023-05-22T19:36:26.056Z,99013.64
2023-05-22T19:38:53.975Z,99011.72
2023-05-22T19:41:23.228Z,99011.21
2023-05-22T19:43:51.428Z,99014.11
2023-05-22T19:46:19.118Z,99013.31
2023-05-22T19:48:46.971Z,99013.36
2023-05-22T19:51:14.603Z,99011.09
2023-05-22T19:53:42.743Z,99016.27
2023-05-22T19:56:10.332Z,99012.92
2023-05-22T19:58:37.895Z,99008.50
2023-05-22T20:01:05.864Z,99011.49
2023-05-22T20:03:33.908Z,99011.92
2023-05-22T20:06:01.698Z,99013.61
2023-05-22T20:08:29.097Z,99014.13
2023-05-22T20:10:56.556Z,99014.09
2023-05-22T20:13:23.920Z,99015.46
2023-05-22T20:15:53.561Z,99014.30
2023-05-22T20:18:22.214Z,99016.84
2023-05-22T20:20:49.781Z,99014.14
2023-05-22T20:23:17.395Z,99014.32
2023-05-22T20:25:45.031Z,99015.20
2023-05-22T20:28:12.793Z,99014.39
2023-05-22T20:30:40.658Z,99019.59
2023-05-22T20:33:08.388Z,99013.91
2023-05-22T20:35:37.424Z,99014.91
2023-05-22T20:38:08.769Z,99009.19
2023-05-22T20:40:39.290Z,99012.70
2023-05-22T20:43:06.847Z,99011.59
2023-05-22T20:45:34.377Z,99009.34
2023-05-22T20:48:01.952Z,99008.25
2023-05-22T20:50:29.624Z,99008.79
2023-05-22T20:52:57.229Z,99009.29
2023-05-22T20:55:25.646Z,99009.27
2023-05-22T20:57:53.261Z,99010.71
2023-05-22T21:00:20.712Z,99013.16
2023-05-22T21:02:48.458Z,99011.07
2023-05-22T21:05:16.089Z,99012.67
2023-05-22T21:07:43.659Z,99016.11
2023-05-22T21:10:11.400Z,99013.67
2023-05-22T21:12:39.083Z,99016.79
2023-05-22T21:15:07.538Z,99014.67
2023-05-22T21:17:35.065Z,99014.15
2023-05-22T21:20:04.528Z,99010.84
2023-05-22T21:22:32.009Z,99015.44
2023-05-22T21:24:59.543Z,99012.13
2023-05-22T21:27:27.202Z,99011.52
2023-05-22T21:29:54.760Z,99006.94
2023-05-22T21:32:22.238Z,99009.12
2023-05-22T21:34:49.887Z,99012.55
2023-05-22T21:37:17.537Z,99015.30
2023-05-22T21:39:45.316Z,99014.63
2023-05-22T21:42:15.901Z,99014.89
2023-05-22T21:44:43.802Z,99013.67
2023-05-22T21:47:11.595Z,99014.69
2023-05-22T21:49:39.910Z,99017.08
2023-05-22T21:52:07.701Z,99021.75
2023-05-22T21:54:35.293Z,99020.86
2023-05-22T21:57:02.947Z,99024.70
2023-05-22T21:59:30.541Z,99022.45
2023-05-22T22:01:58.087Z,99021.86
2023-05-22T22:04:25.660Z,99022.54
2023-05-22T22:06:53.672Z,99024.55
2023-05-22T22:09:21.447Z,99022.88
2023-05-22T22:11:48.881Z,99019.08
2023-05-22T22:14:16.664Z,99020.38
2023-05-22T22:16:44.662Z,99020.94
2023-05-22T22:19:13.013Z,99022.45
2023-05-22T22:21:40.872Z,99022.11
2023-05-22T22:24:08.528Z,99023.08
2023-05-22T22:26:36.077Z,99023.17
2023-05-22T22:29:04.076Z,99022.42
2023-05-22T22:31:31.535Z,99025.61
2023-05-22T22:33:59.149Z,99022.35
2023-05-22T22:36:26.589Z,99020.51
2023-05-22T22:38:54.028Z,99018.33
2023-05-22T22:41:21.637Z,99018.05
2023-05-22T22:43:49.121Z,99018.58
2023-05-22T22:46:16.786Z,99015.68
2023-05-22T22:48:44.729Z,99011.95
2023-05-22T22:51:12.210Z,99012.13
2023-05-22T22:53:40.586Z,99006.71
2023-05-22T22:56:08.325Z,99003.48
2023-05-22T22:58:36.800Z,99000.13
2023-05-22T23:01:05.382Z,98999.34
2023-05-22T23:03:33.209Z,98996.96
2023-05-22T23:06:00.987Z,98995.73
2023-05-22T23:08:28.426Z,98992.14
2023-05-22T23:10:56.037Z,98992.54
2023-05-22T23:13:23.527Z,98992.86
2023-05-22T23:15:51.110Z,98991.33
2023-05-22T23:18:19.015Z,98995.45
2023-05-22T23:20:46.773Z,98998.46
2023-05-22T23:23:14.331Z,99001.48
2023-05-22T23:25:42.035Z,98999.91
2023-05-22T23:28:09.749Z,98999.00
2023-05-22T23:30:37.238Z,99000.19
2023-05-22T23:33:06.412Z,99002.38
2023-05-22T23:35:34.067Z,99000.92
2023-05-22T23:38:01.836Z,98999.88
2023-05-22T23:40:29.314Z,98999.27
2023-05-22T23:42:56.867Z,98996.95
2023-05-22T23:45:24.400Z,98991.21
2023-05-22T23:47:51.993Z,98992.05
2023-05-22T23:50:19.550Z,98991.80
2023-05-22T23:52:48.375Z,98990.97
2023-05-22T23:55:16.482Z,98995.25
2023-05-22T23:57:44.070Z,98991.85
